Time;durP1;ratioP1;P1;durP2;ratioP2;P2;SDS_P1;SDS_P2;PMS_P1;PMS_P2;Temp;Humidity;BMP_temperature;BMP_pressure;BME280_temperature;BME280_humidity;BME280_pressure;Samples;Min_cycle;Max_cycle;Signal;HPM_P1;HPM_P2
2023/12/25 00:01:02;;;;;;;6.00;2.72;;;;;;;;;;5011141;28;20025;-66
2023/12/25 00:03:28;;;;;;;6.45;2.25;;;;;;;;;;5004596;28;20040;-65
2023/12/25 00:05:53;;;;;;;4.78;2.00;;;;;;;;;;5009994;28;20065;-65
2023/12/25 00:08:18;;;;;;;5.10;2.20;;;;;;;;;;5017419;28;20037;-66
2023/12/25 00:10:43;;;;;;;7.57;2.43;;;;;;;;;;5003024;28;20309;-65
2023/12/25 00:13:08;;;;;;;5.00;2.37;;;;;;;;;;5009970;28;20817;-65
2023/12/25 00:15:34;;;;;;;4.43;1.95;;;;;;;;;;5000032;28;20277;-65
2023/12/25 00:17:59;;;;;;;4.13;2.13;;;;;;;;;;5002895;28;20044;-65
2023/12/25 00:20:24;;;;;;;6.30;1.90;;;;;;;;;;5002854;28;20287;-65
2023/12/25 00:22:49;;;;;;;2.97;1.80;;;;;;;;;;5000183;28;20268;-65
2023/12/25 00:25:15;;;;;;;3.85;2.00;;;;;;;;;;5016966;28;20280;-65
2023/12/25 00:27:40;;;;;;;3.75;1.63;;;;;;;;;;5005995;28;20026;-66
2023/12/25 00:30:06;;;;;;;3.00;1.60;;;;;;;;;;4986064;28;20088;-65
2023/12/25 00:32:31;;;;;;;3.38;1.88;;;;;;;;;;5002764;28;20041;-65
2023/12/25 00:34:56;;;;;;;4.47;2.10;;;;;;;;;;5017469;28;20388;-66
2023/12/25 00:37:22;;;;;;;3.77;1.83;;;;;;;;;;5021353;28;20763;-65
2023/12/25 00:39:47;;;;;;;3.45;1.83;;;;;;;;;;5015671;28;21208;-65
2023/12/25 00:42:12;;;;;;;4.70;1.67;;;;;;;;;;4999389;28;20024;-65
2023/12/25 00:44:37;;;;;;;3.40;1.77;;;;;;;;;;5004641;28;20073;-65
2023/12/25 00:47:03;;;;;;;5.13;1.80;;;;;;;;;;5009888;28;20033;-65
2023/12/25 00:49:28;;;;;;;4.87;2.00;;;;;;;;;;5000178;28;20303;-65
2023/12/25 00:51:53;;;;;;;4.87;1.90;;;;;;;;;;5005366;28;20280;-65
2023/12/25 00:54:19;;;;;;;2.85;1.75;;;;;;;;;;5000553;28;20343;-66
2023/12/25 00:56:44;;;;;;;5.15;1.85;;;;;;;;;;5008135;28;20128;-65
2023/12/25 00:59:09;;;;;;;4.17;1.93;;;;;;;;;;5017542;28;20022;-65
2023/12/25 01:01:34;;;;;;;4.00;1.40;;;;;;;;;;5022202;28;20288;-65
2023/12/25 01:04:00;;;;;;;3.92;1.75;;;;;;;;;;5002125;28;20353;-65
2023/12/25 01:06:26;;;;;;;6.83;2.13;;;;;;;;;;4997026;28;20034;-65
2023/12/25 01:08:51;;;;;;;4.55;2.17;;;;;;;;;;5007231;28;20295;-65
2023/12/25 01:11:16;;;;;;;3.70;1.80;;;;;;;;;;4998130;28;20018;-65
2023/12/25 01:13:42;;;;;;;2.80;1.70;;;;;;;;;;5009721;28;20056;-65
2023/12/25 01:16:07;;;;;;;3.77;1.40;;;;;;;;;;5003406;28;20280;-65
2023/12/25 01:18:32;;;;;;;3.90;1.70;;;;;;;;;;5017015;28;20284;-65
2023/12/25 01:20:57;;;;;;;3.77;1.50;;;;;;;;;;5020197;28;20276;-65
2023/12/25 01:23:22;;;;;;;4.90;1.80;;;;;;;;;;5014803;28;20264;-65
2023/12/25 01:25:48;;;;;;;3.10;1.48;;;;;;;;;;5018784;28;20025;-64
2023/12/25 01:28:13;;;;;;;6.45;1.70;;;;;;;;;;5007430;28;20048;-65
2023/12/25 01:30:38;;;;;;;5.07;1.60;;;;;;;;;;5009440;28;20068;-65
2023/12/25 01:33:03;;;;;;;3.28;1.73;;;;;;;;;;5010937;28;20276;-65
2023/12/25 01:35:29;;;;;;;3.97;1.38;;;;;;;;;;5006671;28;20038;-65
2023/12/25 01:37:54;;;;;;;5.23;2.10;;;;;;;;;;5014881;28;20091;-65
2023/12/25 01:40:19;;;;;;;2.60;1.27;;;;;;;;;;5017958;28;20371;-65
2023/12/25 01:42:44;;;;;;;3.47;1.75;;;;;;;;;;5010723;28;20468;-65
2023/12/25 01:45:10;;;;;;;3.03;1.60;;;;;;;;;;5021985;28;20022;-65
2023/12/25 01:47:35;;;;;;;3.67;1.80;;;;;;;;;;5007523;28;20030;-65
2023/12/25 01:50:02;;;;;;;3.92;1.80;;;;;;;;;;5010986;28;20029;-65
2023/12/25 01:52:28;;;;;;;3.85;1.70;;;;;;;;;;5002577;28;20029;-65
2023/12/25 01:54:54;;;;;;;3.42;1.45;;;;;;;;;;5004653;28;20033;-65
2023/12/25 01:57:19;;;;;;;4.68;1.50;;;;;;;;;;5004169;28;20021;-64
2023/12/25 01:59:44;;;;;;;5.28;1.63;;;;;;;;;;5007113;28;20033;-65
2023/12/25 02:02:10;;;;;;;3.40;1.50;;;;;;;;;;5006366;28;20121;-65
2023/12/25 02:04:35;;;;;;;2.88;1.25;;;;;;;;;;5008564;28;20399;-65
2023/12/25 02:07:01;;;;;;;3.33;1.35;;;;;;;;;;5005637;28;20060;-65
2023/12/25 02:09:27;;;;;;;2.45;1.23;;;;;;;;;;5002350;28;20049;-65
2023/12/25 02:11:52;;;;;;;4.15;1.40;;;;;;;;;;5000581;28;20037;-65
2023/12/25 02:14:17;;;;;;;2.20;1.10;;;;;;;;;;5003181;28;20033;-66
2023/12/25 02:16:43;;;;;;;2.83;1.20;;;;;;;;;;4999472;28;20310;-65
2023/12/25 02:19:17;;;;;;;2.80;1.42;;;;;;;;;;4985409;28;20056;-65
2023/12/25 02:21:42;;;;;;;2.20;0.90;;;;;;;;;;5016406;28;20053;-64
2023/12/25 02:24:08;;;;;;;2.00;1.10;;;;;;;;;;5003992;28;20126;-64
2023/12/25 02:26:34;;;;;;;2.53;1.00;;;;;;;;;;5014508;28;20103;-65
2023/12/25 02:28:59;;;;;;;2.50;0.93;;;;;;;;;;5000000;28;20125;-65
2023/12/25 02:31:24;;;;;;;2.33;1.07;;;;;;;;;;5004160;28;20374;-65
2023/12/25 02:33:50;;;;;;;2.72;1.33;;;;;;;;;;5003048;28;20296;-64
2023/12/25 02:36:15;;;;;;;2.93;1.23;;;;;;;;;;5014198;28;20040;-65
2023/12/25 02:38:40;;;;;;;2.28;1.30;;;;;;;;;;5007456;28;20265;-65
2023/12/25 02:41:05;;;;;;;6.93;1.45;;;;;;;;;;5002671;28;20034;-65
2023/12/25 02:43:31;;;;;;;4.13;1.35;;;;;;;;;;5005221;28;20022;-65
2023/12/25 02:45:56;;;;;;;5.63;1.27;;;;;;;;;;5007973;28;20049;-65
2023/12/25 02:48:21;;;;;;;2.43;1.30;;;;;;;;;;5012524;28;20276;-64
2023/12/25 02:50:46;;;;;;;4.18;1.40;;;;;;;;;;5012354;28;20277;-64
2023/12/25 02:53:11;;;;;;;3.90;1.43;;;;;;;;;;5021785;28;20035;-64
2023/12/25 02:55:39;;;;;;;3.77;1.77;;;;;;;;;;5022724;28;20345;-64
2023/12/25 02:58:04;;;;;;;3.28;1.48;;;;;;;;;;5021945;28;20626;-65
2023/12/25 03:00:29;;;;;;;3.30;1.30;;;;;;;;;;5019819;28;20025;-64
2023/12/25 03:02:54;;;;;;;3.38;1.60;;;;;;;;;;5004602;28;21254;-64
2023/12/25 03:05:19;;;;;;;3.10;1.42;;;;;;;;;;5011117;28;20124;-65
2023/12/25 03:07:45;;;;;;;3.47;1.50;;;;;;;;;;5020612;28;20026;-65
2023/12/25 03:10:10;;;;;;;3.03;1.10;;;;;;;;;;5007771;28;20026;-65
2023/12/25 03:12:35;;;;;;;4.67;1.37;;;;;;;;;;5012653;28;20751;-65
2023/12/25 03:15:00;;;;;;;2.67;0.90;;;;;;;;;;5007250;28;20861;-65
2023/12/25 03:17:26;;;;;;;2.50;1.03;;;;;;;;;;5007454;28;20666;-65
2023/12/25 03:19:51;;;;;;;2.47;1.10;;;;;;;;;;5033430;28;20295;-65
2023/12/25 03:22:16;;;;;;;2.08;0.70;;;;;;;;;;5005769;28;20277;-65
2023/12/25 03:24:41;;;;;;;1.90;0.70;;;;;;;;;;5006310;28;20018;-64
2023/12/25 03:27:06;;;;;;;1.27;0.73;;;;;;;;;;5010004;28;20272;-64
2023/12/25 03:29:32;;;;;;;3.03;0.70;;;;;;;;;;5002640;28;20332;-64
2023/12/25 03:31:57;;;;;;;2.45;0.88;;;;;;;;;;5006667;28;20293;-65
2023/12/25 03:34:22;;;;;;;2.10;1.10;;;;;;;;;;5002678;28;20120;-64
2023/12/25 03:36:47;;;;;;;3.00;0.63;;;;;;;;;;5002954;28;20976;-64
2023/12/25 03:39:13;;;;;;;2.23;1.07;;;;;;;;;;5015933;28;20815;-64
2023/12/25 03:41:38;;;;;;;1.67;0.60;;;;;;;;;;5010103;28;20267;-65
2023/12/25 03:44:03;;;;;;;1.48;0.68;;;;;;;;;;5005738;28;20830;-65
2023/12/25 03:46:28;;;;;;;3.33;0.80;;;;;;;;;;5007101;28;20092;-64
2023/12/25 03:48:54;;;;;;;1.73;0.77;;;;;;;;;;5001409;28;20030;-64
2023/12/25 03:51:19;;;;;;;1.60;0.33;;;;;;;;;;5001048;28;20034;-64
2023/12/25 03:53:44;;;;;;;1.10;0.50;;;;;;;;;;5002093;28;20276;-64
2023/12/25 03:56:11;;;;;;;1.17;0.38;;;;;;;;;;5006833;28;20312;-64
2023/12/25 03:58:36;;;;;;;1.05;0.40;;;;;;;;;;5011024;28;20034;-64
2023/12/25 04:01:02;;;;;;;2.83;0.40;;;;;;;;;;5000107;28;20091;-64
2023/12/25 04:03:27;;;;;;;2.25;0.60;;;;;;;;;;5005344;28;20494;-64
2023/12/25 04:05:52;;;;;;;1.20;0.47;;;;;;;;;;4999348;28;20034;-65
2023/12/25 04:08:17;;;;;;;0.95;0.30;;;;;;;;;;5001562;28;20095;-63
2023/12/25 04:10:43;;;;;;;0.65;0.30;;;;;;;;;;5009027;28;20030;-64
2023/12/25 04:13:08;;;;;;;2.08;0.52;;;;;;;;;;4995476;28;20088;-62
2023/12/25 04:15:33;;;;;;;0.73;0.37;;;;;;;;;;5012987;28;20461;-64
2023/12/25 04:17:58;;;;;;;0.80;0.20;;;;;;;;;;5016180;28;20814;-64
2023/12/25 04:20:24;;;;;;;0.80;0.30;;;;;;;;;;5011513;28;20329;-65
2023/12/25 04:22:49;;;;;;;2.13;0.60;;;;;;;;;;5008004;28;20770;-64
2023/12/25 04:25:14;;;;;;;1.27;0.38;;;;;;;;;;5008624;28;21463;-64
2023/12/25 04:27:40;;;;;;;2.22;0.73;;;;;;;;;;5005638;28;20032;-65
2023/12/25 04:30:05;;;;;;;0.75;0.40;;;;;;;;;;5013883;28;20040;-64
2023/12/25 04:32:30;;;;;;;1.52;0.60;;;;;;;;;;5007281;28;20044;-64
2023/12/25 04:34:56;;;;;;;2.77;0.70;;;;;;;;;;5009283;28;20037;-64
2023/12/25 04:37:21;;;;;;;1.40;0.60;;;;;;;;;;5013107;28;20275;-65
2023/12/25 04:39:46;;;;;;;2.22;0.40;;;;;;;;;;5006600;28;20292;-64
2023/12/25 04:42:11;;;;;;;1.73;0.50;;;;;;;;;;5014893;28;20138;-65
2023/12/25 04:44:36;;;;;;;3.00;0.57;;;;;;;;;;4999648;28;20849;-65
2023/12/25 04:47:02;;;;;;;1.17;0.47;;;;;;;;;;5010479;28;20285;-65
2023/12/25 04:49:27;;;;;;;1.50;0.50;;;;;;;;;;4998394;28;20332;-65
2023/12/25 04:51:52;;;;;;;1.43;0.57;;;;;;;;;;5007607;28;21219;-65
2023/12/25 04:54:17;;;;;;;2.13;0.70;;;;;;;;;;5017612;28;21117;-65
2023/12/25 04:56:43;;;;;;;2.22;0.52;;;;;;;;;;5016248;28;20742;-65
2023/12/25 04:59:09;;;;;;;1.25;0.50;;;;;;;;;;5005026;28;20055;-65
2023/12/25 05:01:34;;;;;;;1.95;0.77;;;;;;;;;;4999532;28;20576;-65
2023/12/25 05:03:59;;;;;;;3.47;0.70;;;;;;;;;;5002798;28;20044;-65
2023/12/25 05:06:25;;;;;;;2.45;0.45;;;;;;;;;;5004768;28;20030;-66
2023/12/25 05:08:50;;;;;;;1.48;0.52;;;;;;;;;;5014865;28;20033;-65
2023/12/25 05:11:15;;;;;;;1.35;0.47;;;;;;;;;;5014272;28;20025;-66
2023/12/25 05:13:40;;;;;;;1.20;0.30;;;;;;;;;;5005264;28;20076;-66
2023/12/25 05:16:06;;;;;;;1.10;0.40;;;;;;;;;;4999938;28;20284;-66
2023/12/25 05:18:31;;;;;;;2.00;0.60;;;;;;;;;;5009851;28;20346;-66
2023/12/25 05:20:56;;;;;;;1.02;0.45;;;;;;;;;;5007445;28;20176;-66
2023/12/25 05:23:21;;;;;;;2.58;0.82;;;;;;;;;;5004795;28;20053;-66
2023/12/25 05:25:47;;;;;;;2.03;0.70;;;;;;;;;;5001383;28;20030;-66
2023/12/25 05:28:12;;;;;;;1.37;0.50;;;;;;;;;;5002338;28;20289;-66
2023/12/25 05:30:37;;;;;;;2.50;0.50;;;;;;;;;;5015956;28;20350;-66
2023/12/25 05:33:03;;;;;;;0.93;0.40;;;;;;;;;;4993497;28;20040;-66
2023/12/25 05:35:28;;;;;;;1.80;0.57;;;;;;;;;;5002209;28;20419;-65
2023/12/25 05:37:55;;;;;;;1.23;0.43;;;;;;;;;;5012365;28;20519;-65
2023/12/25 05:40:20;;;;;;;1.45;0.63;;;;;;;;;;4998623;28;20026;-65
2023/12/25 05:42:46;;;;;;;1.55;0.60;;;;;;;;;;5004242;28;20082;-65
2023/12/25 05:45:11;;;;;;;1.30;0.45;;;;;;;;;;5001532;28;20120;-65
2023/12/25 05:47:36;;;;;;;2.77;0.60;;;;;;;;;;5008348;28;20413;-65
2023/12/25 05:50:01;;;;;;;4.53;0.63;;;;;;;;;;5002217;28;20320;-65
2023/12/25 05:52:27;;;;;;;4.63;0.73;;;;;;;;;;5011976;28;20080;-65
2023/12/25 05:54:52;;;;;;;1.98;0.60;;;;;;;;;;5011513;28;20022;-65
2023/12/25 05:57:17;;;;;;;3.45;0.57;;;;;;;;;;5005346;28;20048;-66
2023/12/25 05:59:42;;;;;;;2.43;0.73;;;;;;;;;;5018739;28;20057;-66
2023/12/25 06:02:10;;;;;;;2.25;0.80;;;;;;;;;;5002253;28;20763;-65
2023/12/25 06:04:36;;;;;;;3.00;0.90;;;;;;;;;;5003517;28;20021;-65
2023/12/25 06:07:01;;;;;;;1.00;0.50;;;;;;;;;;5005085;28;20941;-65
2023/12/25 06:09:26;;;;;;;0.95;0.43;;;;;;;;;;4997491;28;20304;-65
2023/12/25 06:11:52;;;;;;;1.67;0.63;;;;;;;;;;5000969;28;20030;-65
2023/12/25 06:14:18;;;;;;;1.00;0.47;;;;;;;;;;5002937;28;20057;-66
2023/12/25 06:16:43;;;;;;;3.20;0.60;;;;;;;;;;5002485;28;20053;-65
2023/12/25 06:19:08;;;;;;;1.77;0.73;;;;;;;;;;5001861;28;20030;-65
2023/12/25 06:21:33;;;;;;;1.70;0.67;;;;;;;;;;5014981;28;20033;-65
2023/12/25 06:23:59;;;;;;;1.95;0.30;;;;;;;;;;4999782;28;20283;-65
2023/12/25 06:26:24;;;;;;;1.88;0.55;;;;;;;;;;5005846;28;20033;-65
2023/12/25 06:28:49;;;;;;;2.10;0.50;;;;;;;;;;5000774;28;20568;-65
2023/12/25 06:31:14;;;;;;;2.25;0.40;;;;;;;;;;5001627;28;21180;-65
2023/12/25 06:33:40;;;;;;;1.67;0.53;;;;;;;;;;5005875;28;20378;-65
2023/12/25 06:36:05;;;;;;;2.10;0.55;;;;;;;;;;5002245;28;20308;-65
2023/12/25 06:38:31;;;;;;;1.95;0.60;;;;;;;;;;4982748;28;20084;-65
2023/12/25 06:40:56;;;;;;;2.07;0.63;;;;;;;;;;5004222;28;20079;-65
2023/12/25 06:43:21;;;;;;;1.87;0.47;;;;;;;;;;5001123;28;20293;-65
2023/12/25 06:45:46;;;;;;;1.83;0.57;;;;;;;;;;4999186;28;20408;-65
2023/12/25 06:48:11;;;;;;;4.60;0.70;;;;;;;;;;5012855;28;20041;-64
2023/12/25 06:50:38;;;;;;;1.23;0.50;;;;;;;;;;5016826;28;20297;-65
2023/12/25 06:53:03;;;;;;;1.67;0.60;;;;;;;;;;5007312;28;20277;-65
2023/12/25 06:55:28;;;;;;;1.25;0.50;;;;;;;;;;5011978;28;20037;-66
2023/12/25 06:57:54;;;;;;;1.90;0.70;;;;;;;;;;5006541;28;20058;-66
2023/12/25 07:00:19;;;;;;;1.95;0.60;;;;;;;;;;5014077;28;20061;-66
2023/12/25 07:02:44;;;;;;;1.05;0.30;;;;;;;;;;5011661;28;20025;-65
2023/12/25 07:05:09;;;;;;;1.45;0.50;;;;;;;;;;5002185;28;20028;-65
2023/12/25 07:07:35;;;;;;;3.20;0.50;;;;;;;;;;5016791;28;20026;-66
2023/12/25 07:10:00;;;;;;;1.03;0.40;;;;;;;;;;5011949;28;20037;-65
2023/12/25 07:12:25;;;;;;;0.95;0.35;;;;;;;;;;5016792;28;20368;-65
2023/12/25 07:14:53;;;;;;;2.65;0.60;;;;;;;;;;5021984;28;20057;-66
2023/12/25 07:17:19;;;;;;;1.52;0.63;;;;;;;;;;5016997;28;20032;-66
2023/12/25 07:19:44;;;;;;;1.20;0.40;;;;;;;;;;5010745;28;20105;-65
2023/12/25 07:22:11;;;;;;;1.63;0.45;;;;;;;;;;5013625;28;20480;-65
2023/12/25 07:24:36;;;;;;;1.17;0.40;;;;;;;;;;5012027;28;20026;-65
2023/12/25 07:27:01;;;;;;;0.77;0.33;;;;;;;;;;5005262;28;20044;-65
2023/12/25 07:29:27;;;;;;;1.10;0.40;;;;;;;;;;5019977;28;20292;-66
2023/12/25 07:31:52;;;;;;;2.05;0.40;;;;;;;;;;5015447;28;20281;-65
2023/12/25 07:34:18;;;;;;;1.90;0.50;;;;;;;;;;5007706;28;20022;-65
2023/12/25 07:36:44;;;;;;;1.15;0.40;;;;;;;;;;5013790;28;20640;-66
2023/12/25 07:39:09;;;;;;;0.83;0.20;;;;;;;;;;5007410;28;20037;-65
2023/12/25 07:41:34;;;;;;;1.47;0.40;;;;;;;;;;5019068;28;20277;-64
2023/12/25 07:44:01;;;;;;;1.00;0.30;;;;;;;;;;5011521;28;20276;-65
2023/12/25 07:46:26;;;;;;;0.82;0.20;;;;;;;;;;5005894;28;20288;-65
2023/12/25 07:48:51;;;;;;;4.30;2.28;;;;;;;;;;5013526;28;20030;-65
2023/12/25 07:51:16;;;;;;;4.00;1.33;;;;;;;;;;5022064;28;20034;-65
2023/12/25 07:53:42;;;;;;;3.07;1.30;;;;;;;;;;5011608;28;20735;-65
2023/12/25 07:56:07;;;;;;;2.10;0.83;;;;;;;;;;5011072;28;20273;-65
2023/12/25 07:58:32;;;;;;;1.58;0.60;;;;;;;;;;5009041;28;20834;-65
2023/12/25 08:00:57;;;;;;;1.90;0.80;;;;;;;;;;5012843;28;20050;-65
2023/12/25 08:03:23;;;;;;;1.37;0.50;;;;;;;;;;5006479;28;20272;-65
2023/12/25 08:05:48;;;;;;;1.38;0.57;;;;;;;;;;5020013;28;20358;-65
2023/12/25 08:08:13;;;;;;;4.13;1.33;;;;;;;;;;5007499;28;20491;-65
2023/12/25 08:10:38;;;;;;;4.33;1.97;;;;;;;;;;4994119;28;20412;-65
2023/12/25 08:13:04;;;;;;;4.22;1.55;;;;;;;;;;4995264;28;20277;-65
2023/12/25 08:15:29;;;;;;;4.88;2.03;;;;;;;;;;5009422;28;20030;-65
2023/12/25 08:17:54;;;;;;;3.13;1.30;;;;;;;;;;5008500;28;20045;-65
2023/12/25 08:20:20;;;;;;;3.13;1.02;;;;;;;;;;5017122;28;20052;-65
2023/12/25 08:22:45;;;;;;;0.88;0.40;;;;;;;;;;5013737;28;20041;-65
2023/12/25 08:25:10;;;;;;;0.50;0.20;;;;;;;;;;4988796;28;20388;-65
2023/12/25 08:27:35;;;;;;;0.95;0.40;;;;;;;;;;5019911;28;20280;-65
2023/12/25 08:30:01;;;;;;;1.60;0.30;;;;;;;;;;5013472;28;20038;-65
2023/12/25 08:32:26;;;;;;;0.70;0.25;;;;;;;;;;4993262;28;20042;-65
2023/12/25 08:34:52;;;;;;;0.73;0.30;;;;;;;;;;4975293;28;20065;-64
2023/12/25 08:37:18;;;;;;;1.13;0.50;;;;;;;;;;4985453;28;20268;-65
2023/12/25 08:39:43;;;;;;;1.45;0.55;;;;;;;;;;4988197;28;21158;-66
2023/12/25 08:42:08;;;;;;;0.77;0.38;;;;;;;;;;4990550;28;20061;-66
2023/12/25 08:44:33;;;;;;;0.95;0.32;;;;;;;;;;4977403;28;20857;-66
2023/12/25 08:46:59;;;;;;;2.08;0.80;;;;;;;;;;4977259;28;20117;-66
2023/12/25 08:49:24;;;;;;;1.17;0.40;;;;;;;;;;4977361;28;20064;-66
2023/12/25 08:51:50;;;;;;;0.38;0.20;;;;;;;;;;4973578;28;20034;-66
2023/12/25 08:54:15;;;;;;;0.77;0.30;;;;;;;;;;4976561;28;20084;-66
2023/12/25 08:56:40;;;;;;;1.13;0.50;;;;;;;;;;5008900;28;20287;-65
2023/12/25 08:59:06;;;;;;;1.00;0.40;;;;;;;;;;5025717;28;20476;-66
2023/12/25 09:01:31;;;;;;;0.77;0.32;;;;;;;;;;5020443;28;20100;-66
2023/12/25 09:03:57;;;;;;;0.93;0.30;;;;;;;;;;5013769;28;20088;-65
2023/12/25 09:06:23;;;;;;;3.70;0.43;;;;;;;;;;5010389;28;20025;-66
2023/12/25 09:08:49;;;;;;;0.88;0.25;;;;;;;;;;5018247;28;20021;-66
2023/12/25 09:11:14;;;;;;;0.98;0.35;;;;;;;;;;5018727;28;20072;-66
2023/12/25 09:13:39;;;;;;;0.63;0.22;;;;;;;;;;5018282;28;20029;-66
2023/12/25 09:16:04;;;;;;;0.80;0.20;;;;;;;;;;5022023;28;20039;-66
2023/12/25 09:18:30;;;;;;;2.47;0.60;;;;;;;;;;5001374;28;20287;-66
2023/12/25 09:20:58;;;;;;;0.80;0.30;;;;;;;;;;5008240;28;20487;-66
2023/12/25 09:23:23;;;;;;;0.90;0.20;;;;;;;;;;4978569;28;20029;-67
2023/12/25 09:25:48;;;;;;;0.68;0.20;;;;;;;;;;4975734;28;20029;-66
2023/12/25 09:28:14;;;;;;;0.65;0.30;;;;;;;;;;4974069;28;20038;-65
2023/12/25 09:30:39;;;;;;;0.52;0.22;;;;;;;;;;5004880;28;20107;-67
2023/12/25 09:33:04;;;;;;;0.70;0.30;;;;;;;;;;5007371;28;20396;-65
2023/12/25 09:35:30;;;;;;;1.10;0.40;;;;;;;;;;5017686;28;20068;-64
2023/12/25 09:37:55;;;;;;;0.95;0.30;;;;;;;;;;5031495;28;20029;-66
2023/12/25 09:40:21;;;;;;;0.82;0.32;;;;;;;;;;4991540;28;20575;-65
2023/12/25 09:42:49;;;;;;;0.80;0.30;;;;;;;;;;5007519;28;20083;-65
2023/12/25 09:45:15;;;;;;;1.15;0.43;;;;;;;;;;5003058;28;20033;-64
2023/12/25 09:47:41;;;;;;;1.02;0.38;;;;;;;;;;5012106;28;20025;-67
2023/12/25 09:50:06;;;;;;;0.88;0.40;;;;;;;;;;5011555;28;20040;-67
2023/12/25 09:52:32;;;;;;;0.90;0.50;;;;;;;;;;5015198;28;20021;-67
2023/12/25 09:54:57;;;;;;;0.77;0.32;;;;;;;;;;5013378;28;20159;-66
2023/12/25 09:57:23;;;;;;;0.90;0.40;;;;;;;;;;5007365;28;20083;-66
2023/12/25 09:59:52;;;;;;;1.60;0.52;;;;;;;;;;5007299;28;20026;-64
2023/12/25 10:02:18;;;;;;;1.08;0.50;;;;;;;;;;5004407;28;20030;-64
2023/12/25 10:04:44;;;;;;;0.75;0.30;;;;;;;;;;5020132;28;20112;-64
2023/12/25 10:07:09;;;;;;;0.73;0.32;;;;;;;;;;5003789;28;20419;-64
2023/12/25 10:09:34;;;;;;;1.90;0.43;;;;;;;;;;5018637;28;20037;-64
2023/12/25 10:12:00;;;;;;;0.70;0.30;;;;;;;;;;5012314;28;20285;-66
2023/12/25 10:14:25;;;;;;;1.83;0.50;;;;;;;;;;5007352;28;20375;-65
2023/12/25 10:16:50;;;;;;;1.27;0.40;;;;;;;;;;5007149;28;20116;-63
2023/12/25 10:19:15;;;;;;;2.17;0.70;;;;;;;;;;5004467;28;20272;-62
2023/12/25 10:21:44;;;;;;;0.77;0.30;;;;;;;;;;5010067;28;20061;-62
2023/12/25 10:24:11;;;;;;;1.00;0.50;;;;;;;;;;5008486;28;20612;-62
2023/12/25 10:26:36;;;;;;;1.83;0.45;;;;;;;;;;5012900;28;20025;-62
2023/12/25 10:29:08;;;;;;;3.53;1.55;;;;;;;;;;5016648;28;20040;-61
2023/12/25 10:31:33;;;;;;;4.45;3.08;;;;;;;;;;4990027;28;20076;-63
2023/12/25 10:33:59;;;;;;;3.00;1.60;;;;;;;;;;5008634;28;20060;-63
2023/12/25 10:36:26;;;;;;;1.83;0.90;;;;;;;;;;5008676;28;20301;-64
2023/12/25 10:38:51;;;;;;;2.17;1.08;;;;;;;;;;5014155;28;20040;-60
2023/12/25 10:41:20;;;;;;;1.10;0.40;;;;;;;;;;5015877;28;20037;-63
2023/12/25 10:43:53;;;;;;;1.63;0.60;;;;;;;;;;5008912;28;20026;-62
2023/12/25 10:46:20;;;;;;;1.00;0.38;;;;;;;;;;5007782;28;20507;-62
2023/12/25 10:48:49;;;;;;;1.38;0.47;;;;;;;;;;5011103;28;20037;-63
2023/12/25 10:51:16;;;;;;;1.65;0.70;;;;;;;;;;5011888;28;20017;-62
2023/12/25 10:53:41;;;;;;;2.58;0.90;;;;;;;;;;5004460;28;20030;-65
2023/12/25 10:56:07;;;;;;;1.63;0.50;;;;;;;;;;4976439;28;20049;-66
2023/12/25 10:58:32;;;;;;;1.30;0.55;;;;;;;;;;4983648;28;20849;-66
2023/12/25 11:00:59;;;;;;;1.00;0.47;;;;;;;;;;5018107;28;20068;-65
2023/12/25 11:03:25;;;;;;;1.23;0.45;;;;;;;;;;5014933;28;20268;-64
2023/12/25 11:05:51;;;;;;;1.80;0.70;;;;;;;;;;5018105;28;20028;-65
2023/12/25 11:08:19;;;;;;;1.25;0.52;;;;;;;;;;5014900;28;20025;-65
2023/12/25 11:10:45;;;;;;;1.55;0.77;;;;;;;;;;4994949;28;20054;-64
2023/12/25 11:13:11;;;;;;;1.13;0.55;;;;;;;;;;5017233;28;20122;-62
2023/12/25 11:15:37;;;;;;;1.35;0.60;;;;;;;;;;4983548;28;20959;-65
2023/12/25 11:18:03;;;;;;;1.33;0.50;;;;;;;;;;4988655;28;20017;-65
2023/12/25 11:20:29;;;;;;;1.05;0.47;;;;;;;;;;4982295;28;20076;-65
2023/12/25 11:22:58;;;;;;;1.98;0.90;;;;;;;;;;4982265;28;20025;-63
2023/12/25 11:25:27;;;;;;;1.20;0.40;;;;;;;;;;5020050;28;20036;-65
2023/12/25 11:27:53;;;;;;;1.33;0.47;;;;;;;;;;5015231;28;20153;-66
2023/12/25 11:30:19;;;;;;;2.35;0.70;;;;;;;;;;4985715;28;20088;-66
2023/12/25 11:32:48;;;;;;;2.03;0.77;;;;;;;;;;4983097;28;20820;-64
2023/12/25 11:35:14;;;;;;;2.13;0.80;;;;;;;;;;4980581;28;20018;-64
2023/12/25 11:37:39;;;;;;;1.80;0.80;;;;;;;;;;4987647;28;20044;-63
2023/12/25 11:40:08;;;;;;;1.75;0.80;;;;;;;;;;4988582;28;20061;-67
2023/12/25 11:42:36;;;;;;;2.00;0.90;;;;;;;;;;4989774;28;20033;-66
2023/12/25 11:45:06;;;;;;;1.75;0.93;;;;;;;;;;4977769;28;20032;-66
2023/12/25 11:47:44;;;;;;;4.28;1.20;;;;;;;;;;4984313;28;20917;-66
2023/12/25 11:50:11;;;;;;;2.30;0.85;;;;;;;;;;4979760;28;20029;-66
2023/12/25 11:52:42;;;;;;;2.83;1.20;;;;;;;;;;4978839;28;20037;-65
2023/12/25 11:55:08;;;;;;;3.00;1.10;;;;;;;;;;4978330;28;20034;-63
2023/12/25 11:57:34;;;;;;;2.05;1.00;;;;;;;;;;4985770;28;20450;-64
2023/12/25 11:59:59;;;;;;;1.70;0.85;;;;;;;;;;4984474;28;20028;-65
2023/12/25 12:02:24;;;;;;;2.15;0.88;;;;;;;;;;5023922;28;20037;-64
2023/12/25 12:04:50;;;;;;;2.10;1.00;;;;;;;;;;5013958;28;20392;-64
2023/12/25 12:07:16;;;;;;;2.45;1.30;;;;;;;;;;5014655;28;20109;-63
2023/12/25 12:09:41;;;;;;;1.50;0.77;;;;;;;;;;5017667;28;20065;-63
2023/12/25 12:12:07;;;;;;;1.33;0.52;;;;;;;;;;5014361;28;20026;-68
2023/12/25 12:14:32;;;;;;;2.30;1.05;;;;;;;;;;5009204;28;20026;-65
2023/12/25 12:16:57;;;;;;;1.25;0.65;;;;;;;;;;4979619;28;20128;-65
2023/12/25 12:19:23;;;;;;;1.50;0.60;;;;;;;;;;4983674;28;20921;-65
2023/12/25 12:21:49;;;;;;;1.85;0.75;;;;;;;;;;4961341;28;20944;-64
2023/12/25 12:24:25;;;;;;;1.42;0.60;;;;;;;;;;4978486;28;20030;-64
2023/12/25 12:26:51;;;;;;;2.42;0.85;;;;;;;;;;4987246;28;20036;-65
2023/12/25 12:29:16;;;;;;;1.42;0.50;;;;;;;;;;4983410;28;20045;-63
2023/12/25 12:31:41;;;;;;;6.30;0.82;;;;;;;;;;5011779;28;20030;-67
2023/12/25 12:34:07;;;;;;;1.77;0.77;;;;;;;;;;5008434;28;20034;-62
2023/12/25 12:36:32;;;;;;;6.65;2.00;;;;;;;;;;4999698;28;20269;-63
2023/12/25 12:38:57;;;;;;;2.70;1.25;;;;;;;;;;5015447;28;20022;-65
2023/12/25 12:41:23;;;;;;;1.98;0.95;;;;;;;;;;5010537;28;20091;-66
2023/12/25 12:43:48;;;;;;;1.90;0.80;;;;;;;;;;5009445;28;20026;-63
2023/12/25 12:46:14;;;;;;;2.60;1.00;;;;;;;;;;5005982;28;20354;-63
2023/12/25 12:48:40;;;;;;;1.63;0.88;;;;;;;;;;4996133;28;20265;-63
2023/12/25 12:51:05;;;;;;;1.80;0.82;;;;;;;;;;5015785;28;20033;-64
2023/12/25 12:53:30;;;;;;;1.73;0.70;;;;;;;;;;5015360;28;20430;-63
2023/12/25 12:55:55;;;;;;;2.00;0.90;;;;;;;;;;5013938;28;20419;-65
2023/12/25 12:58:20;;;;;;;2.00;0.90;;;;;;;;;;5009333;28;20029;-65
2023/12/25 13:00:46;;;;;;;1.88;0.70;;;;;;;;;;4999406;28;20264;-65
2023/12/25 13:03:11;;;;;;;1.33;0.60;;;;;;;;;;5008556;28;20037;-65
2023/12/25 13:05:36;;;;;;;2.38;1.00;;;;;;;;;;4986060;28;20293;-65
2023/12/25 13:08:02;;;;;;;2.95;0.93;;;;;;;;;;5000219;28;20021;-65
2023/12/25 13:10:27;;;;;;;1.45;0.80;;;;;;;;;;4977961;28;20036;-65
2023/12/25 13:12:52;;;;;;;3.22;1.50;;;;;;;;;;4980052;28;20115;-64
2023/12/25 13:15:17;;;;;;;3.83;1.08;;;;;;;;;;4979290;28;20037;-65
2023/12/25 13:17:43;;;;;;;2.53;0.98;;;;;;;;;;4995123;28;20025;-64
2023/12/25 13:20:09;;;;;;;2.33;0.90;;;;;;;;;;5012402;28;20022;-65
2023/12/25 13:22:35;;;;;;;3.00;1.05;;;;;;;;;;5023122;28;20877;-65
2023/12/25 13:25:00;;;;;;;1.35;0.60;;;;;;;;;;5026284;28;20018;-65
2023/12/25 13:27:25;;;;;;;1.55;0.50;;;;;;;;;;5013494;28;20034;-64
2023/12/25 13:29:51;;;;;;;1.77;0.82;;;;;;;;;;5010251;28;20038;-64
2023/12/25 13:32:17;;;;;;;2.00;0.70;;;;;;;;;;5012880;28;20033;-64
2023/12/25 13:34:42;;;;;;;2.30;0.77;;;;;;;;;;5020398;28;20033;-64
2023/12/25 13:37:07;;;;;;;2.38;1.13;;;;;;;;;;5019946;28;20026;-64
2023/12/25 13:39:33;;;;;;;2.00;0.80;;;;;;;;;;5011106;28;20041;-64
2023/12/25 13:41:58;;;;;;;1.55;0.60;;;;;;;;;;5012749;28;20366;-65
2023/12/25 13:44:25;;;;;;;1.35;0.52;;;;;;;;;;5012214;28;20034;-64
2023/12/25 13:46:50;;;;;;;1.08;0.50;;;;;;;;;;5010904;28;20030;-64
2023/12/25 13:49:17;;;;;;;1.33;0.40;;;;;;;;;;5012324;28;20117;-63
2023/12/25 13:51:43;;;;;;;1.52;0.60;;;;;;;;;;5026826;28;20037;-65
2023/12/25 13:54:08;;;;;;;1.40;0.57;;;;;;;;;;5020118;28;20085;-66
2023/12/25 13:56:34;;;;;;;1.38;0.60;;;;;;;;;;5016061;28;20025;-65
2023/12/25 13:58:59;;;;;;;0.95;0.40;;;;;;;;;;5017411;28;20018;-66
2023/12/25 14:01:24;;;;;;;2.00;0.70;;;;;;;;;;5026831;28;20037;-65
2023/12/25 14:03:50;;;;;;;1.17;0.40;;;;;;;;;;5018628;28;20287;-65
2023/12/25 14:06:15;;;;;;;1.20;0.50;;;;;;;;;;5028800;28;20059;-65
2023/12/25 14:08:40;;;;;;;1.58;0.70;;;;;;;;;;5016599;28;20056;-65
2023/12/25 14:11:05;;;;;;;1.67;0.68;;;;;;;;;;5010538;28;20026;-65
2023/12/25 14:13:31;;;;;;;1.60;0.65;;;;;;;;;;5018008;28;20032;-66
2023/12/25 14:15:56;;;;;;;3.60;0.80;;;;;;;;;;5022454;28;20579;-65
2023/12/25 14:18:21;;;;;;;1.38;0.60;;;;;;;;;;5015071;28;20029;-65
2023/12/25 14:20:46;;;;;;;2.38;1.15;;;;;;;;;;5027731;28;20026;-65
2023/12/25 14:23:12;;;;;;;4.45;2.70;;;;;;;;;;5023421;28;20483;-65
2023/12/25 14:25:37;;;;;;;2.83;1.08;;;;;;;;;;5013908;28;20108;-65
2023/12/25 14:28:02;;;;;;;3.20;1.50;;;;;;;;;;5013448;28;20488;-65
2023/12/25 14:30:27;;;;;;;2.28;1.10;;;;;;;;;;5016851;28;20048;-65
2023/12/25 14:32:53;;;;;;;3.77;1.33;;;;;;;;;;5016840;28;20025;-65